createdAt,value
2018-07-07T00:01:52.418Z,99513.89
2018-07-07T00:04:21.515Z,99515.27
2018-07-07T00:06:50.619Z,99517.05
2018-07-07T00:09:19.790Z,99516.92
2018-07-07T00:11:48.970Z,99517.62
2018-07-07T00:14:18.085Z,99512.58
2018-07-07T00:16:47.210Z,99517.46
2018-07-07T00:19:16.372Z,99515.45
2018-07-07T00:21:45.460Z,99517.20
2018-07-07T00:24:15.030Z,99518.45
2018-07-07T00:26:44.106Z,99515.56
2018-07-07T00:29:13.422Z,99515.84
2018-07-07T00:31:42.585Z,99519.39
2018-07-07T00:34:11.662Z,99519.94
2018-07-07T00:36:40.821Z,99515.84
2018-07-07T00:39:09.986Z,99510.38
2018-07-07T00:41:39.202Z,99515.23
2018-07-07T00:44:08.372Z,99509.98
2018-07-07T00:46:37.551Z,99511.84
2018-07-07T00:49:06.791Z,99512.38
2018-07-07T00:51:35.840Z,99516.83
2018-07-07T00:54:04.966Z,99517.51
2018-07-07T00:56:34.287Z,99517.20
2018-07-07T00:59:03.621Z,99512.80
2018-07-07T01:01:32.730Z,99517.11
2018-07-07T01:04:01.879Z,99519.02
2018-07-07T01:06:31.185Z,99522.98
2018-07-07T01:09:00.761Z,99518.95
2018-07-07T01:11:30.067Z,99522.30
2018-07-07T01:13:59.207Z,99518.82
2018-07-07T01:16:28.327Z,99517.73
2018-07-07T01:18:57.498Z,99513.34
2018-07-07T01:21:26.665Z,99514.37
2018-07-07T01:23:55.722Z,99512.92
2018-07-07T01:26:24.916Z,99519.13
2018-07-07T01:28:54.207Z,99512.13
2018-07-07T01:31:23.341Z,99515.11
2018-07-07T01:33:52.496Z,99518.70
2018-07-07T01:36:21.649Z,99513.52
2018-07-07T01:38:50.832Z,99513.15
2018-07-07T01:41:19.977Z,99514.73
2018-07-07T01:43:49.113Z,99510.69
2018-07-07T01:46:18.273Z,99506.18
2018-07-07T01:48:47.590Z,99504.14
2018-07-07T01:51:16.657Z,99507.47
2018-07-07T01:53:45.720Z,99504.92
2018-07-07T01:56:14.928Z,99506.02
2018-07-07T01:58:44.038Z,99503.14
2018-07-07T02:01:13.177Z,99512.41
2018-07-07T02:03:42.227Z,99506.83
2018-07-07T02:06:11.415Z,99506.58
2018-07-07T02:08:40.846Z,99507.19
2018-07-07T02:11:10.031Z,99510.86
2018-07-07T02:13:39.110Z,99512.67
2018-07-07T02:16:08.306Z,99508.39
2018-07-07T02:18:37.488Z,99507.59
2018-07-07T02:21:07.146Z,99514.22
2018-07-07T02:23:36.226Z,99511.80
2018-07-07T02:26:05.605Z,99514.16
2018-07-07T02:28:34.753Z,99511.54
2018-07-07T02:31:03.944Z,99508.25
2018-07-07T02:33:33.125Z,99507.22
2018-07-07T02:36:02.290Z,99508.84
2018-07-07T02:38:31.462Z,99499.13
2018-07-07T02:41:00.598Z,99504.41
2018-07-07T02:43:29.702Z,99502.77
2018-07-07T02:45:58.799Z,99505.08
2018-07-07T02:48:27.880Z,99503.61
2018-07-07T02:50:56.990Z,99499.08
2018-07-07T02:53:26.098Z,99502.72
2018-07-07T02:55:55.344Z,99499.63
2018-07-07T02:58:24.418Z,99505.72
2018-07-07T03:00:53.545Z,99501.89
2018-07-07T03:03:22.741Z,99503.13
2018-07-07T03:05:52.488Z,99499.70
2018-07-07T03:08:21.638Z,99502.30
2018-07-07T03:10:50.778Z,99501.14
2018-07-07T03:13:19.962Z,99502.20
2018-07-07T03:15:49.165Z,99507.19
2018-07-07T03:18:19.499Z,99507.60
2018-07-07T03:20:48.581Z,99503.73
2018-07-07T03:23:17.746Z,99513.91
2018-07-07T03:25:46.879Z,99510.19
2018-07-07T03:28:16.197Z,99506.18
2018-07-07T03:30:45.377Z,99510.51
2018-07-07T03:33:14.472Z,99511.92
2018-07-07T03:35:43.782Z,99520.59
2018-07-07T03:38:13.098Z,99515.98
2018-07-07T03:40:42.273Z,99486.31
2018-07-07T03:43:11.370Z,99521.08
2018-07-07T03:45:40.553Z,99514.03
2018-07-07T03:48:09.764Z,99518.90
2018-07-07T03:50:38.850Z,99523.59
2018-07-07T03:53:08.011Z,99520.12
2018-07-07T03:55:37.289Z,99528.91
2018-07-07T03:58:06.415Z,99529.80
2018-07-07T04:00:35.507Z,99528.32
2018-07-07T04:03:04.600Z,99534.12
2018-07-07T04:05:33.741Z,99532.33
2018-07-07T04:08:02.817Z,99533.62
2018-07-07T04:10:31.898Z,99532.64
2018-07-07T04:13:01.000Z,99537.68
2018-07-07T04:15:30.996Z,99535.31
2018-07-07T04:18:00.222Z,99531.67
2018-07-07T04:20:29.586Z,99529.16
2018-07-07T04:22:58.679Z,99531.79
2018-07-07T04:25:28.084Z,99529.37
2018-07-07T04:27:57.269Z,99529.25
2018-07-07T04:30:26.405Z,99501.33
2018-07-07T04:32:55.512Z,99534.52
2018-07-07T04:35:24.630Z,99377.49
2018-07-07T04:37:53.856Z,99525.45
2018-07-07T04:40:22.897Z,99533.12
2018-07-07T04:42:52.058Z,99534.11
2018-07-07T04:45:21.187Z,99534.91
2018-07-07T04:47:51.047Z,99531.28
2018-07-07T04:50:20.231Z,99531.98
2018-07-07T04:52:50.251Z,99533.27
2018-07-07T04:55:19.401Z,99536.63
2018-07-07T04:57:48.501Z,99537.42
2018-07-07T05:00:17.694Z,99539.66
2018-07-07T05:02:47.030Z,99533.94
2018-07-07T05:05:16.191Z,99537.19
2018-07-07T05:07:45.656Z,99534.79
2018-07-07T05:10:15.095Z,99537.75
2018-07-07T05:12:44.291Z,99534.11
2018-07-07T05:15:13.397Z,99529.84
2018-07-07T05:17:42.490Z,99535.69
2018-07-07T05:20:11.710Z,99532.05
2018-07-07T05:22:40.887Z,99535.95
2018-07-07T05:25:09.981Z,99536.13
2018-07-07T05:27:39.075Z,99538.87
2018-07-07T05:30:08.394Z,99546.79
2018-07-07T05:32:37.938Z,99546.25
2018-07-07T05:35:07.056Z,99558.15
2018-07-07T05:37:36.313Z,99546.40
2018-07-07T05:40:05.808Z,99551.98
2018-07-07T05:42:34.987Z,99548.88
2018-07-07T05:45:04.302Z,99548.83
2018-07-07T05:47:34.388Z,99545.11
2018-07-07T05:50:03.752Z,99547.48
2018-07-07T05:52:33.054Z,99544.69
2018-07-07T05:55:02.206Z,99548.17
2018-07-07T05:57:31.388Z,99548.94
2018-07-07T06:00:00.971Z,99547.00
2018-07-07T06:02:32.997Z,99557.39
2018-07-07T06:05:02.261Z,99556.52
2018-07-07T06:07:31.543Z,99551.32
2018-07-07T06:10:00.716Z,99552.73
2018-07-07T06:12:29.857Z,99553.89
2018-07-07T06:14:59.034Z,99554.66
2018-07-07T06:17:28.378Z,99554.14
2018-07-07T06:19:57.474Z,99555.77
2018-07-07T06:22:26.644Z,99555.19
2018-07-07T06:24:55.750Z,99561.86
2018-07-07T06:27:24.991Z,99561.71
2018-07-07T06:29:54.077Z,99558.27
2018-07-07T06:32:23.202Z,99554.55
2018-07-07T06:34:52.397Z,99559.21
2018-07-07T06:37:22.170Z,99556.20
2018-07-07T06:39:52.889Z,99551.46
2018-07-07T06:42:22.090Z,99548.49
2018-07-07T06:44:51.904Z,99553.69
2018-07-07T06:47:21.624Z,99546.64
2018-07-07T06:49:50.774Z,99549.16
2018-07-07T06:52:19.950Z,99542.92
2018-07-07T06:54:49.070Z,99544.05
2018-07-07T06:57:18.254Z,99548.56
2018-07-07T06:59:47.401Z,99545.39
2018-07-07T07:02:16.577Z,99542.70
2018-07-07T07:04:45.971Z,99548.48
2018-07-07T07:07:15.690Z,99547.62
2018-07-07T07:09:44.995Z,99550.02
2018-07-07T07:12:14.198Z,99547.44
2018-07-07T07:14:43.285Z,99554.51
2018-07-07T07:17:12.419Z,99550.06
2018-07-07T07:19:41.482Z,99547.44
2018-07-07T07:22:10.674Z,99550.35
2018-07-07T07:24:39.767Z,99546.82
2018-07-07T07:27:09.266Z,99555.11
2018-07-07T07:30:07.658Z,99555.17
2018-07-07T07:32:38.547Z,99554.67
2018-07-07T07:35:07.975Z,99549.89
2018-07-07T07:37:37.182Z,99550.69
2018-07-07T07:40:06.348Z,99558.60
2018-07-07T07:42:35.520Z,99551.41
2018-07-07T07:45:04.697Z,99553.72
2018-07-07T07:47:33.863Z,99552.30
2018-07-07T07:50:03.109Z,99452.98
2018-07-07T07:52:32.672Z,99554.04
2018-07-07T07:55:02.588Z,99552.50
2018-07-07T07:57:31.708Z,99550.87
2018-07-07T08:00:00.974Z,99552.47
2018-07-07T08:02:30.201Z,99554.05
2018-07-07T08:05:00.246Z,99550.95
2018-07-07T08:07:29.911Z,99552.09
2018-07-07T08:09:59.548Z,99549.75
2018-07-07T08:12:28.766Z,99551.56
2018-07-07T08:14:58.009Z,99545.44
2018-07-07T08:17:27.227Z,99556.19
2018-07-07T08:19:56.407Z,99546.94
2018-07-07T08:22:25.522Z,99539.44
2018-07-07T08:24:54.734Z,99552.70
2018-07-07T08:27:23.942Z,99544.83
2018-07-07T08:29:53.212Z,99536.33
2018-07-07T08:32:22.437Z,99540.62
2018-07-07T08:34:51.598Z,99544.80
2018-07-07T08:37:20.821Z,99541.84
2018-07-07T08:39:50.023Z,99541.97
2018-07-07T08:42:19.305Z,99542.02
2018-07-07T08:44:48.422Z,99543.50
2018-07-07T08:47:17.596Z,99544.47
2018-07-07T08:49:46.771Z,99548.41
2018-07-07T08:52:15.929Z,99548.63
2018-07-07T08:54:45.090Z,99549.66
2018-07-07T08:57:14.521Z,99550.89
2018-07-07T08:59:44.103Z,99551.92
2018-07-07T09:02:13.646Z,99544.59
2018-07-07T09:04:42.736Z,99549.56
2018-07-07T09:07:11.958Z,99545.40
2018-07-07T09:09:41.135Z,99544.03
2018-07-07T09:12:10.473Z,99551.13
2018-07-07T09:14:39.904Z,99550.44
2018-07-07T09:17:09.105Z,99370.63
2018-07-07T09:19:38.438Z,99542.79
2018-07-07T09:22:07.684Z,99546.58
2018-07-07T09:24:36.977Z,99543.48
2018-07-07T09:27:06.160Z,99530.80
2018-07-07T09:29:35.268Z,99527.98
2018-07-07T09:32:04.921Z,99530.53
2018-07-07T09:34:34.938Z,99529.81
2018-07-07T09:37:04.251Z,99528.69
2018-07-07T09:39:33.529Z,99533.84
2018-07-07T09:42:02.838Z,99525.50
2018-07-07T09:44:32.736Z,99525.50
2018-07-07T09:47:02.017Z,99529.02
2018-07-07T09:49:31.192Z,99521.00
2018-07-07T09:52:00.277Z,99513.36
2018-07-07T09:54:29.578Z,99514.99
2018-07-07T09:56:59.051Z,99519.55
2018-07-07T09:59:28.261Z,99515.70
2018-07-07T10:01:57.455Z,99513.11
2018-07-07T10:04:26.813Z,99517.47
2018-07-07T10:06:56.230Z,99514.66
2018-07-07T10:09:25.446Z,99517.00
2018-07-07T10:11:54.658Z,99512.46
2018-07-07T10:14:23.881Z,99511.84
2018-07-07T10:16:53.139Z,99511.20
2018-07-07T10:19:22.950Z,99507.19
2018-07-07T10:21:52.133Z,99513.13
2018-07-07T10:24:21.274Z,99515.83
2018-07-07T10:26:50.452Z,99511.64
2018-07-07T10:29:19.680Z,99511.63
2018-07-07T10:31:48.867Z,99504.66
2018-07-07T10:34:18.379Z,99505.80
2018-07-07T10:36:47.514Z,99508.23
2018-07-07T10:39:16.667Z,99508.25
2018-07-07T10:41:45.965Z,99504.49
2018-07-07T10:44:15.268Z,99500.03
2018-07-07T10:46:44.523Z,99493.03
2018-07-07T10:49:13.659Z,99493.17
2018-07-07T10:51:42.825Z,99495.34
2018-07-07T10:54:12.024Z,99491.66
2018-07-07T10:56:41.198Z,99489.44
2018-07-07T10:59:10.326Z,99484.98
2018-07-07T11:01:39.479Z,99486.52
2018-07-07T11:04:08.655Z,99482.52
2018-07-07T11:06:37.756Z,99481.51
2018-07-07T11:09:06.905Z,99484.41
2018-07-07T11:11:36.055Z,99481.53
2018-07-07T11:14:05.353Z,99482.75
2018-07-07T11:16:34.638Z,99484.42
2018-07-07T11:19:03.776Z,99480.36
2018-07-07T11:21:32.934Z,99475.55
2018-07-07T11:24:02.091Z,99477.58
2018-07-07T11:26:31.360Z,99473.70
2018-07-07T11:29:00.707Z,99470.14
2018-07-07T11:31:29.806Z,99470.80
2018-07-07T11:33:58.976Z,99465.41
2018-07-07T11:36:28.185Z,99471.21
2018-07-07T11:38:57.320Z,99460.27
2018-07-07T11:41:26.884Z,99467.48
2018-07-07T11:43:56.639Z,99462.04
2018-07-07T11:46:25.840Z,99458.05
2018-07-07T11:48:55.126Z,99463.60
2018-07-07T11:51:24.238Z,99455.00
2018-07-07T11:53:53.713Z,99458.08
2018-07-07T11:56:22.809Z,99454.20
2018-07-07T11:58:51.965Z,99460.00
2018-07-07T12:01:21.168Z,99455.34
2018-07-07T12:03:50.294Z,99432.59
2018-07-07T12:06:20.178Z,99459.16
2018-07-07T12:08:49.309Z,99459.45
2018-07-07T12:11:18.424Z,99457.49
2018-07-07T12:13:47.873Z,99454.89
2018-07-07T12:16:17.050Z,99457.70
2018-07-07T12:18:46.315Z,99459.66
2018-07-07T12:21:15.492Z,99426.61
2018-07-07T12:23:45.818Z,99454.80
2018-07-07T12:26:15.047Z,99451.46
2018-07-07T12:28:44.121Z,99450.44
2018-07-07T12:31:13.293Z,99449.80
2018-07-07T12:33:43.568Z,99445.24
2018-07-07T12:36:13.903Z,99445.48
2018-07-07T12:38:43.692Z,99444.87
2018-07-07T12:41:13.136Z,99450.81
2018-07-07T12:43:42.484Z,99445.06
2018-07-07T12:46:11.485Z,99440.51
2018-07-07T12:48:40.682Z,99435.23
2018-07-07T12:51:10.046Z,99436.44
2018-07-07T12:53:39.743Z,99434.45
2018-07-07T12:56:09.536Z,99436.93
2018-07-07T12:58:40.042Z,99438.93
2018-07-07T13:01:10.550Z,99436.89
2018-07-07T13:03:39.966Z,99432.44
2018-07-07T13:06:09.067Z,99430.52
2018-07-07T13:08:38.166Z,99433.30
2018-07-07T13:11:07.407Z,99430.03
2018-07-07T13:13:36.944Z,99426.04
2018-07-07T13:16:06.204Z,99424.02
2018-07-07T13:18:35.791Z,99419.60
2018-07-07T13:21:05.093Z,99422.97
2018-07-07T13:23:34.303Z,99417.45
2018-07-07T13:26:03.555Z,99425.92
2018-07-07T13:28:32.748Z,99426.17
2018-07-07T13:31:01.938Z,99430.16
2018-07-07T13:33:31.068Z,99427.83
2018-07-07T13:36:00.233Z,99429.28
2018-07-07T13:38:29.422Z,99427.55
2018-07-07T13:40:58.697Z,99423.92
2018-07-07T13:43:27.796Z,99422.92
2018-07-07T13:45:56.915Z,99427.84
2018-07-07T13:48:27.790Z,99424.79
2018-07-07T13:50:57.213Z,99426.31
2018-07-07T13:53:26.774Z,99414.89
2018-07-07T13:55:55.962Z,99406.11
2018-07-07T13:58:25.171Z,99407.13
2018-07-07T14:00:54.370Z,99409.35
2018-07-07T14:03:23.506Z,99411.70
2018-07-07T14:05:52.583Z,99408.03
2018-07-07T14:08:21.773Z,99407.13
2018-07-07T14:10:51.051Z,99407.39
2018-07-07T14:13:20.190Z,99406.60
2018-07-07T14:15:49.339Z,99408.13
2018-07-07T14:18:18.541Z,99399.76
2018-07-07T14:20:47.737Z,99402.89
2018-07-07T14:23:16.829Z,99408.11
2018-07-07T14:25:46.333Z,99404.70
2018-07-07T14:28:15.449Z,99400.70
2018-07-07T14:30:44.651Z,99404.63
2018-07-07T14:33:13.828Z,99397.95
2018-07-07T14:35:43.021Z,99402.14
2018-07-07T14:38:12.149Z,99404.00
2018-07-07T14:40:54.234Z,99406.22
2018-07-07T14:43:23.807Z,99399.94
2018-07-07T14:46:13.593Z,99403.38
2018-07-07T14:48:42.726Z,99404.77
2018-07-07T14:51:11.910Z,99400.42
2018-07-07T14:53:41.017Z,99407.84
2018-07-07T14:56:11.056Z,99405.88
2018-07-07T14:58:40.145Z,99405.43
2018-07-07T15:01:09.450Z,99412.09
2018-07-07T15:03:38.609Z,99408.02
2018-07-07T15:06:08.084Z,99404.73
2018-07-07T15:08:37.220Z,99408.67
2018-07-07T15:11:06.490Z,99411.81
2018-07-07T15:13:35.688Z,99406.27
2018-07-07T15:16:04.838Z,99416.71
2018-07-07T15:18:34.881Z,99407.08
2018-07-07T15:21:04.666Z,99400.95
2018-07-07T15:23:34.198Z,99398.65
2018-07-07T15:26:03.431Z,99399.45
2018-07-07T15:28:32.510Z,99399.85
2018-07-07T15:31:01.614Z,99400.20
2018-07-07T15:33:30.747Z,99398.09
2018-07-07T15:35:59.926Z,99403.69
2018-07-07T15:38:29.297Z,99400.90
2018-07-07T15:40:58.520Z,99396.47
2018-07-07T15:43:27.660Z,99396.63
2018-07-07T15:45:56.846Z,99399.45
2018-07-07T15:48:25.942Z,99398.23
2018-07-07T15:50:55.323Z,99393.04
2018-07-07T15:53:24.806Z,99402.03
2018-07-07T15:55:54.762Z,99396.25
2018-07-07T15:58:23.959Z,99393.20
2018-07-07T16:00:53.234Z,99388.40
2018-07-07T16:03:22.362Z,99384.70
2018-07-07T16:05:51.467Z,99383.71
2018-07-07T16:08:20.568Z,99362.24
2018-07-07T16:10:49.702Z,99385.27
2018-07-07T16:13:18.870Z,99384.83
2018-07-07T16:15:48.010Z,99384.88
2018-07-07T16:18:17.126Z,99378.22
2018-07-07T16:20:47.250Z,99376.58
2018-07-07T16:23:16.383Z,99368.50
2018-07-07T16:25:45.697Z,99370.98
2018-07-07T16:28:14.897Z,99383.21
2018-07-07T16:30:44.105Z,99375.59
2018-07-07T16:33:13.377Z,99371.15
2018-07-07T16:35:42.487Z,99372.72
2018-07-07T16:38:11.735Z,99370.78
2018-07-07T16:40:40.917Z,99367.20
2018-07-07T16:43:10.014Z,99367.41
2018-07-07T16:45:39.054Z,99364.31
2018-07-07T16:48:08.145Z,99320.03
2018-07-07T16:50:37.323Z,99274.61
2018-07-07T16:53:06.401Z,99361.25
2018-07-07T16:55:35.513Z,99363.56
2018-07-07T16:58:04.869Z,99364.16
2018-07-07T17:00:34.700Z,99354.24
2018-07-07T17:03:04.739Z,99358.72
2018-07-07T17:05:33.885Z,99363.02
2018-07-07T17:08:04.102Z,99365.48
2018-07-07T17:10:33.389Z,99363.89
2018-07-07T17:13:03.455Z,99364.31
2018-07-07T17:15:33.421Z,99361.16
2018-07-07T17:18:04.263Z,99365.23
2018-07-07T17:20:34.034Z,99363.91
2018-07-07T17:23:03.226Z,99360.55
2018-07-07T17:25:32.341Z,99360.00
2018-07-07T17:28:01.625Z,99358.70
2018-07-07T17:30:30.724Z,99363.49
2018-07-07T17:32:59.923Z,99368.55
2018-07-07T17:35:30.345Z,99371.57
2018-07-07T17:37:59.558Z,99364.22
2018-07-07T17:40:28.761Z,99374.62
2018-07-07T17:42:57.887Z,99365.90
2018-07-07T17:45:27.005Z,99371.30
2018-07-07T17:47:56.197Z,99372.14
2018-07-07T17:50:25.521Z,99372.41
2018-07-07T17:52:54.647Z,99371.64
2018-07-07T17:55:23.813Z,99378.45
2018-07-07T17:57:53.682Z,99376.33
2018-07-07T18:00:22.755Z,99371.37
2018-07-07T18:02:52.470Z,99376.59
2018-07-07T18:05:21.759Z,99379.88
2018-07-07T18:07:50.855Z,99386.00
2018-07-07T18:10:20.047Z,99378.03
2018-07-07T18:12:49.187Z,99384.19
2018-07-07T18:15:18.375Z,99385.02
2018-07-07T18:17:48.388Z,99382.46
2018-07-07T18:20:17.601Z,99383.78
2018-07-07T18:22:46.814Z,99386.05
2018-07-07T18:25:16.992Z,99392.73
2018-07-07T18:27:46.076Z,99386.91
2018-07-07T18:30:15.280Z,99389.17
2018-07-07T18:32:44.772Z,99384.09
2018-07-07T18:35:13.984Z,99391.70
2018-07-07T18:37:43.317Z,99394.70
2018-07-07T18:40:12.477Z,99390.33
2018-07-07T18:42:41.666Z,99395.44
2018-07-07T18:45:10.843Z,99396.17
2018-07-07T18:47:40.010Z,99392.27
2018-07-07T18:50:09.145Z,99394.72
2018-07-07T18:52:38.418Z,99399.31
2018-07-07T18:55:07.454Z,99397.90
2018-07-07T18:57:36.672Z,99403.33
2018-07-07T19:00:05.934Z,99401.06
2018-07-07T19:02:35.035Z,99400.13
2018-07-07T19:05:04.164Z,99400.41
2018-07-07T19:07:33.852Z,99403.34
2018-07-07T19:10:03.066Z,99403.69
2018-07-07T19:12:32.439Z,99404.48
2018-07-07T19:15:06.858Z,99407.34
2018-07-07T19:17:35.986Z,99409.34
2018-07-07T19:20:05.084Z,99412.97
2018-07-07T19:22:39.445Z,99413.68
2018-07-07T19:25:13.937Z,99418.62
2018-07-07T19:27:43.104Z,99415.91
2018-07-07T19:30:12.310Z,99416.98
2018-07-07T19:34:51.613Z,99414.27
2018-07-07T19:37:21.917Z,99427.09
2018-07-07T19:39:51.079Z,99435.05
2018-07-07T19:42:20.321Z,99436.97
2018-07-07T19:44:49.735Z,99435.53
2018-07-07T19:47:18.854Z,99443.48
2018-07-07T19:49:48.080Z,99442.02
2018-07-07T19:52:17.379Z,99448.16
2018-07-07T19:54:46.650Z,99443.69
2018-07-07T19:57:15.814Z,99444.05
2018-07-07T19:59:45.176Z,99448.91
2018-07-07T20:02:14.336Z,99450.41
2018-07-07T20:04:43.463Z,99448.68
2018-07-07T20:07:12.640Z,99447.70
2018-07-07T20:09:42.884Z,99456.09
2018-07-07T20:12:12.003Z,99456.27
2018-07-07T20:14:41.106Z,99449.66
2018-07-07T20:17:11.591Z,99452.20
2018-07-07T20:20:57.611Z,99450.23
2018-07-07T20:23:27.883Z,99452.32
2018-07-07T20:26:02.826Z,99448.55
2018-07-07T20:28:37.376Z,99449.31
2018-07-07T20:31:06.584Z,99446.33
2018-07-07T20:33:35.781Z,99451.72
2018-07-07T20:36:04.961Z,99460.53
2018-07-07T20:38:34.050Z,99462.74
2018-07-07T20:41:03.257Z,99463.35
2018-07-07T20:43:32.442Z,99464.64
2018-07-07T20:46:01.553Z,99459.10
2018-07-07T20:48:30.638Z,99464.42
2018-07-07T20:50:59.754Z,99461.16
2018-07-07T20:53:29.090Z,99468.48
2018-07-07T20:55:58.236Z,99469.38
2018-07-07T20:58:27.526Z,99469.94
2018-07-07T21:00:56.712Z,99466.62
2018-07-07T21:03:25.909Z,99470.11
2018-07-07T21:05:54.976Z,99472.30
2018-07-07T21:08:24.073Z,99475.14
2018-07-07T21:10:53.361Z,99480.81
2018-07-07T21:13:22.462Z,99480.08
2018-07-07T21:15:51.575Z,99477.63
2018-07-07T21:18:20.694Z,99476.17
2018-07-07T21:20:49.807Z,99476.17
2018-07-07T21:23:19.031Z,99474.81
2018-07-07T21:25:48.166Z,99474.81
2018-07-07T21:28:17.290Z,99483.49
2018-07-07T21:30:46.470Z,99479.88
2018-07-07T21:33:15.758Z,99486.25
2018-07-07T21:35:44.853Z,99479.02
2018-07-07T21:38:14.058Z,99476.28
2018-07-07T21:40:43.453Z,99476.19
2018-07-07T21:43:12.595Z,99475.56
2018-07-07T21:45:41.709Z,99479.27
2018-07-07T21:48:10.785Z,99479.84
2018-07-07T21:50:39.978Z,99480.52
2018-07-07T21:53:09.098Z,99477.88
2018-07-07T21:55:38.175Z,99484.44
2018-07-07T21:58:13.195Z,99482.84
2018-07-07T22:00:58.897Z,99481.42
2018-07-07T22:03:33.404Z,99480.56
2018-07-07T22:06:06.489Z,99484.19
2018-07-07T22:08:36.529Z,99484.17
2018-07-07T22:11:05.923Z,99486.91
2018-07-07T22:13:35.067Z,99482.42
2018-07-07T22:16:04.418Z,99487.59
2018-07-07T22:18:34.345Z,99487.59
2018-07-07T22:21:14.695Z,99481.84
2018-07-07T22:23:43.803Z,99491.91
2018-07-07T22:26:13.186Z,99484.99
2018-07-07T22:28:42.337Z,99482.84
2018-07-07T22:31:11.486Z,99480.88
2018-07-07T22:33:40.525Z,99486.79
2018-07-07T22:36:15.107Z,99488.55
2018-07-07T22:38:49.614Z,99483.47
2018-07-07T22:41:18.735Z,99486.88
2018-07-07T22:43:47.928Z,99484.78
2018-07-07T22:46:17.234Z,99482.50
2018-07-07T22:48:46.324Z,99484.77
2018-07-07T22:51:15.459Z,99483.48
2018-07-07T22:53:44.962Z,99479.23
2018-07-07T22:56:14.108Z,99484.31
2018-07-07T22:58:43.254Z,99478.11
2018-07-07T23:01:12.411Z,99482.91
2018-07-07T23:03:41.506Z,99481.66
2018-07-07T23:06:10.637Z,99483.00
2018-07-07T23:08:39.759Z,99481.89
2018-07-07T23:11:08.860Z,99481.56
2018-07-07T23:13:37.938Z,99486.94
2018-07-07T23:16:07.078Z,99489.05
2018-07-07T23:18:36.234Z,99493.34
2018-07-07T23:21:06.106Z,99487.24
2018-07-07T23:23:35.307Z,99482.34
2018-07-07T23:26:04.455Z,99489.45
2018-07-07T23:28:33.572Z,99485.42
2018-07-07T23:31:02.717Z,99493.47
2018-07-07T23:33:31.993Z,99487.15
2018-07-07T23:36:01.143Z,99497.16
2018-07-07T23:38:30.399Z,99497.78
2018-07-07T23:40:59.517Z,99496.13
2018-07-07T23:43:28.723Z,99501.24
2018-07-07T23:45:57.947Z,99501.62
2018-07-07T23:48:27.098Z,99503.91
2018-07-07T23:50:56.576Z,99502.24
2018-07-07T23:53:25.831Z,99507.30
2018-07-07T23:55:55.006Z,99501.30
2018-07-07T23:58:24.090Z,99442.39
